Terminal Aerodrome Forecast
Issued by NWS

Home | Current Version | Previous Version | Text Only | Print | Product List | Glossary On
Versions: 1 2 3 4 5 6 7 8 9 10 11 12 13 14 15 16 17
000
FTUS46 KSEW 171500 AAA
TAFBLI
TAF AMD
KBLI 171517Z 1715/1812 14008KT 6SM -RA BR FEW011 SCT025 OVC050
      TEMPO 1715/1718 FEW011 BKN025 OVC050
     FM171800 16012KT P6SM -RA SCT020 OVC035
     FM171900 16012G22KT P6SM -RA BKN022 OVC035
     FM172200 19014KT P6SM -SHRA BKN022 OVC035
     FM180500 19010KT P6SM SCT025 BKN040=

USA.gov is the U.S. government's official web portal to all federal, state and local government web resources and services.